West Alton, MO (63386)

3:05 PM CDT on August 30, 2015 (GMT -0500)
Alton - Beacon | | Change Station
CLOSE
Current Station
Personal Weather Station
Location: Alton, IL
Elevation: 530 ft
Nearby Weather Stations

Elev 530 ft 38.89 °N, 90.19 °W | Updated 4 seconds ago

Mostly Cloudy
Mostly Cloudy
89.2 °F
Feels Like 96 °F
N
0.0
Wind Variable Wind from East
Gusts 3.0 mph

Today
High -- | Low -- °F
--% Chance of Precip.
Yesterday
High -- | Low -- °F
Precip. -- in
6:27 AM 7:34 PM
Full, 98% visible
Pressure 29.98 in
Visibility 10.0 miles
Clouds Mostly Cloudy 4500 ft
Mostly Cloudy 25000 ft
Heat Index 96 °F
Dew Point 72 °F
Humidity 57%
Rainfall 0.00 in
Snow Depth Not available.
UV 4 out of 12
Pollen 10.60 out of 12
Air Quality Not available.
Flu Activity Not available.
METAR KSTL 301951Z 20006KT 10SM BKN045 BKN250 31/19 A3002 RMK AO2 SLP152 T03110189 $
Pressure 29.98 in
Visibility 10.0 miles
Clouds Mostly Cloudy 4500 ft
Mostly Cloudy 25000 ft
Heat Index 96 °F
Dew Point 72 °F
Humidity 57%
Rainfall 0.00 in
Snow Depth Not available.
UV 4 out of 12
Pollen 10.60 out of 12
Air Quality Not available.
Flu Activity Not available.
METAR KSTL 301951Z 20006KT 10SM BKN045 BKN250 31/19 A3002 RMK AO2 SLP152 T03110189 $

10-Day Weather Forecast

×

Almanac

Astronomy

Aug. 30, 2015 Rise Set
Actual Time
Civil Twilight
Nautical Twilight
Astronomical Twilight
Moon
Length of Visible Light
Length of Day
Tomorrow will be .
, % of the Moon is Illuminated

Today's Extremes

State Highs State Lows

Community

WunderPhotos

Upload Photos

1,851,048 photos uploaded!

WunderBlogs® & News

Nearby

Air Quality

  Air Quality AQ Index Pollutant
Not available.

Snow Depth

Station Depth Elevation

Earthquake Activity

City Distance Mag. Time & Date
Minimum magnitude displayed is 2.5.

Coastal Water Temperatures

Place Temperature

Stations

Nearby Weather Stations

Station Location Temp. Windchill Dew Point Humidity Wind Precip. Elev Updated Type